Abingdon, Virginia
Current Conditions -  °F | °C
As of 3:55 PM on Saturday 25 Oct 2014 (Local Time) from KVJI Reporting Station
Scattered Clouds Scattered Clouds  
Wind Chill: 67°   Ceiling: Unl
Heat Index: 67°   Visibility: 10mi
Dew Point: 48°   Wind: 7mph
Humidity: 51%   Direction: 260°W
Pressure: 30.02"   Gusts: NA
Location:  36.71°N, 81.98°W
Report Text: KVJI 251955Z AUTO 26006KT 10SM SCT048 19/09 A3002 RMK AO2 T01920087
Loading
Personal Weather Stations






























Interactive Weather Map
Tropical Storm Tracking
New forecast layout! Learn more

10-Day Weather Forecast

Advertisements
Track Severe Weather on mobile